sensor_id;sensor_type;location;lat;lon;timestamp;temperature;humidity
46976;DHT22;32724;51.094;6.996;2023-05-01T00:02:05;12.20;99.90
46976;DHT22;32724;51.094;6.996;2023-05-01T00:04:32;12.20;99.90
46976;DHT22;32724;51.094;6.996;2023-05-01T00:06:57;12.20;99.90
46976;DHT22;32724;51.094;6.996;2023-05-01T00:09:25;12.20;99.90
46976;DHT22;32724;51.094;6.996;2023-05-01T00:11:51;12.20;99.90
46976;DHT22;32724;51.094;6.996;2023-05-01T00:14:16;12.20;99.90
46976;DHT22;32724;51.094;6.996;2023-05-01T00:16:42;12.20;99.90
46976;DHT22;32724;51.094;6.996;2023-05-01T00:19:07;12.20;99.90
46976;DHT22;32724;51.094;6.996;2023-05-01T00:21:33;12.20;99.90
46976;DHT22;32724;51.094;6.996;2023-05-01T00:23:58;12.20;99.90
46976;DHT22;32724;51.094;6.996;2023-05-01T00:26:24;12.20;99.90
46976;DHT22;32724;51.094;6.996;2023-05-01T00:28:53;12.20;99.90
46976;DHT22;32724;51.094;6.996;2023-05-01T00:31:19;12.20;99.90
46976;DHT22;32724;51.094;6.996;2023-05-01T00:33:44;12.20;99.90
46976;DHT22;32724;51.094;6.996;2023-05-01T00:36:10;12.20;99.90
46976;DHT22;32724;51.094;6.996;2023-05-01T00:38:35;12.20;99.90
46976;DHT22;32724;51.094;6.996;2023-05-01T00:41:01;12.10;99.90
46976;DHT22;32724;51.094;6.996;2023-05-01T00:43:26;12.10;99.90
46976;DHT22;32724;51.094;6.996;2023-05-01T00:45:52;12.10;99.90
46976;DHT22;32724;51.094;6.996;2023-05-01T00:48:17;12.20;99.90
46976;DHT22;32724;51.094;6.996;2023-05-01T00:50:43;12.10;99.90
46976;DHT22;32724;51.094;6.996;2023-05-01T00:53:09;12.10;99.90
46976;DHT22;32724;51.094;6.996;2023-05-01T00:55:35;12.10;99.90
46976;DHT22;32724;51.094;6.996;2023-05-01T00:58:01;12.10;99.90
46976;DHT22;32724;51.094;6.996;2023-05-01T01:00:27;12.10;99.90
46976;DHT22;32724;51.094;6.996;2023-05-01T01:02:53;12.00;99.90
46976;DHT22;32724;51.094;6.996;2023-05-01T01:05:19;12.00;99.90
46976;DHT22;32724;51.094;6.996;2023-05-01T01:07:46;12.00;99.90
46976;DHT22;32724;51.094;6.996;2023-05-01T01:10:17;12.00;99.90
46976;DHT22;32724;51.094;6.996;2023-05-01T01:15:33;12.00;99.90
46976;DHT22;32724;51.094;6.996;2023-05-01T01:20:30;11.90;99.90
46976;DHT22;32724;51.094;6.996;2023-05-01T01:23:15;11.90;99.90
46976;DHT22;32724;51.094;6.996;2023-05-01T01:26:01;11.90;99.90
46976;DHT22;32724;51.094;6.996;2023-05-01T01:31:59;11.90;99.90
46976;DHT22;32724;51.094;6.996;2023-05-01T01:34:12;11.80;99.90
46976;DHT22;32724;51.094;6.996;2023-05-01T01:36:40;11.80;99.90
46976;DHT22;32724;51.094;6.996;2023-05-01T01:39:08;11.70;99.90
46976;DHT22;32724;51.094;6.996;2023-05-01T01:41:35;11.70;99.90
46976;DHT22;32724;51.094;6.996;2023-05-01T01:44:14;11.60;99.90
46976;DHT22;32724;51.094;6.996;2023-05-01T01:46:44;11.60;99.90
46976;DHT22;32724;51.094;6.996;2023-05-01T01:49:12;11.60;99.90
46976;DHT22;32724;51.094;6.996;2023-05-01T01:51:40;11.60;99.90
46976;DHT22;32724;51.094;6.996;2023-05-01T01:54:06;11.50;99.90
46976;DHT22;32724;51.094;6.996;2023-05-01T01:56:32;11.50;99.90
46976;DHT22;32724;51.094;6.996;2023-05-01T01:58:59;11.50;99.90
46976;DHT22;32724;51.094;6.996;2023-05-01T02:01:25;11.50;99.90
46976;DHT22;32724;51.094;6.996;2023-05-01T02:03:51;11.50;99.90
46976;DHT22;32724;51.094;6.996;2023-05-01T02:06:17;11.40;99.90
46976;DHT22;32724;51.094;6.996;2023-05-01T02:08:43;11.40;99.90
46976;DHT22;32724;51.094;6.996;2023-05-01T02:11:11;11.30;99.90
46976;DHT22;32724;51.094;6.996;2023-05-01T02:13:38;11.30;99.90
46976;DHT22;32724;51.094;6.996;2023-05-01T02:16:05;11.30;99.90
46976;DHT22;32724;51.094;6.996;2023-05-01T02:18:31;11.30;99.90
46976;DHT22;32724;51.094;6.996;2023-05-01T02:20:57;11.30;99.90
46976;DHT22;32724;51.094;6.996;2023-05-01T02:23:24;11.20;99.90
46976;DHT22;32724;51.094;6.996;2023-05-01T02:25:51;11.20;99.90
46976;DHT22;32724;51.094;6.996;2023-05-01T02:28:20;11.20;99.90
46976;DHT22;32724;51.094;6.996;2023-05-01T02:30:47;11.20;99.90
46976;DHT22;32724;51.094;6.996;2023-05-01T02:33:12;11.10;99.90
46976;DHT22;32724;51.094;6.996;2023-05-01T02:35:38;11.20;99.90
46976;DHT22;32724;51.094;6.996;2023-05-01T02:38:05;11.20;99.90
46976;DHT22;32724;51.094;6.996;2023-05-01T02:40:30;11.10;99.90
46976;DHT22;32724;51.094;6.996;2023-05-01T02:42:57;11.10;99.90
46976;DHT22;32724;51.094;6.996;2023-05-01T02:45:24;11.10;99.90
46976;DHT22;32724;51.094;6.996;2023-05-01T02:47:52;11.10;99.90
46976;DHT22;32724;51.094;6.996;2023-05-01T02:50:19;11.10;99.90
46976;DHT22;32724;51.094;6.996;2023-05-01T02:52:46;11.10;99.90
46976;DHT22;32724;51.094;6.996;2023-05-01T02:55:11;11.10;99.90
46976;DHT22;32724;51.094;6.996;2023-05-01T02:57:37;11.10;99.90
46976;DHT22;32724;51.094;6.996;2023-05-01T03:00:03;11.00;99.90
46976;DHT22;32724;51.094;6.996;2023-05-01T03:02:28;11.00;99.90
46976;DHT22;32724;51.094;6.996;2023-05-01T03:04:54;11.00;99.90
46976;DHT22;32724;51.094;6.996;2023-05-01T03:07:19;11.00;99.90
46976;DHT22;32724;51.094;6.996;2023-05-01T03:09:45;10.90;99.90
46976;DHT22;32724;51.094;6.996;2023-05-01T03:12:10;10.90;99.90
46976;DHT22;32724;51.094;6.996;2023-05-01T03:14:36;10.90;99.90
46976;DHT22;32724;51.094;6.996;2023-05-01T03:17:01;10.90;99.90
46976;DHT22;32724;51.094;6.996;2023-05-01T03:19:27;10.80;99.90
46976;DHT22;32724;51.094;6.996;2023-05-01T03:21:52;10.80;99.90
46976;DHT22;32724;51.094;6.996;2023-05-01T03:24:18;10.70;99.90
46976;DHT22;32724;51.094;6.996;2023-05-01T03:26:43;10.80;99.90
46976;DHT22;32724;51.094;6.996;2023-05-01T03:29:09;10.80;99.90
46976;DHT22;32724;51.094;6.996;2023-05-01T03:31:35;10.70;99.90
46976;DHT22;32724;51.094;6.996;2023-05-01T03:34:00;10.60;99.90
46976;DHT22;32724;51.094;6.996;2023-05-01T03:36:26;10.60;99.90
46976;DHT22;32724;51.094;6.996;2023-05-01T03:38:52;10.50;99.90
46976;DHT22;32724;51.094;6.996;2023-05-01T03:41:18;10.50;99.90
46976;DHT22;32724;51.094;6.996;2023-05-01T03:43:43;10.40;99.90
46976;DHT22;32724;51.094;6.996;2023-05-01T03:46:09;10.40;99.90
46976;DHT22;32724;51.094;6.996;2023-05-01T03:48:34;10.30;99.90
46976;DHT22;32724;51.094;6.996;2023-05-01T03:51:00;10.30;99.90
46976;DHT22;32724;51.094;6.996;2023-05-01T03:53:26;10.30;99.90
46976;DHT22;32724;51.094;6.996;2023-05-01T03:55:51;10.30;99.90
46976;DHT22;32724;51.094;6.996;2023-05-01T03:58:16;10.30;99.90
46976;DHT22;32724;51.094;6.996;2023-05-01T04:00:42;10.30;99.90
46976;DHT22;32724;51.094;6.996;2023-05-01T04:03:07;10.30;99.90
46976;DHT22;32724;51.094;6.996;2023-05-01T04:05:33;10.20;99.90
46976;DHT22;32724;51.094;6.996;2023-05-01T04:07:59;10.30;99.90
46976;DHT22;32724;51.094;6.996;2023-05-01T04:10:24;10.00;99.90
46976;DHT22;32724;51.094;6.996;2023-05-01T04:12:50;9.80;99.90
46976;DHT22;32724;51.094;6.996;2023-05-01T04:15:16;9.60;99.90
46976;DHT22;32724;51.094;6.996;2023-05-01T04:17:41;9.60;99.90
46976;DHT22;32724;51.094;6.996;2023-05-01T04:20:10;9.60;99.90
46976;DHT22;32724;51.094;6.996;2023-05-01T04:22:36;9.60;99.90
46976;DHT22;32724;51.094;6.996;2023-05-01T04:25:02;9.60;99.90
46976;DHT22;32724;51.094;6.996;2023-05-01T04:27:29;9.60;99.90
46976;DHT22;32724;51.094;6.996;2023-05-01T04:29:54;9.60;99.90
46976;DHT22;32724;51.094;6.996;2023-05-01T04:32:20;9.60;99.90
46976;DHT22;32724;51.094;6.996;2023-05-01T04:34:45;9.60;99.90
46976;DHT22;32724;51.094;6.996;2023-05-01T04:37:11;9.60;99.90
46976;DHT22;32724;51.094;6.996;2023-05-01T04:39:36;9.70;99.90
46976;DHT22;32724;51.094;6.996;2023-05-01T04:42:02;9.70;99.90
46976;DHT22;32724;51.094;6.996;2023-05-01T04:44:28;9.80;99.90
46976;DHT22;32724;51.094;6.996;2023-05-01T04:46:53;9.90;99.90
46976;DHT22;32724;51.094;6.996;2023-05-01T04:49:20;9.90;99.90
46976;DHT22;32724;51.094;6.996;2023-05-01T04:51:46;10.00;99.90
46976;DHT22;32724;51.094;6.996;2023-05-01T04:54:11;10.00;99.90
46976;DHT22;32724;51.094;6.996;2023-05-01T04:56:36;10.10;99.90
46976;DHT22;32724;51.094;6.996;2023-05-01T04:59:02;10.20;99.90
46976;DHT22;32724;51.094;6.996;2023-05-01T05:01:27;10.20;99.90
46976;DHT22;32724;51.094;6.996;2023-05-01T05:03:53;10.30;99.90
46976;DHT22;32724;51.094;6.996;2023-05-01T05:06:19;10.40;99.90
46976;DHT22;32724;51.094;6.996;2023-05-01T05:08:45;10.40;99.90
46976;DHT22;32724;51.094;6.996;2023-05-01T05:11:10;10.50;99.90
46976;DHT22;32724;51.094;6.996;2023-05-01T05:13:36;10.60;99.90
46976;DHT22;32724;51.094;6.996;2023-05-01T05:16:01;10.40;99.90
46976;DHT22;32724;51.094;6.996;2023-05-01T05:18:27;10.10;99.90
46976;DHT22;32724;51.094;6.996;2023-05-01T05:20:53;10.00;99.90
46976;DHT22;32724;51.094;6.996;2023-05-01T05:23:18;10.20;99.90
46976;DHT22;32724;51.094;6.996;2023-05-01T05:25:44;10.20;99.90
46976;DHT22;32724;51.094;6.996;2023-05-01T05:28:09;10.30;99.90
46976;DHT22;32724;51.094;6.996;2023-05-01T05:30:35;10.20;99.90
46976;DHT22;32724;51.094;6.996;2023-05-01T05:33:01;10.20;99.90
46976;DHT22;32724;51.094;6.996;2023-05-01T05:35:27;10.20;99.90
46976;DHT22;32724;51.094;6.996;2023-05-01T05:37:54;10.10;99.90
46976;DHT22;32724;51.094;6.996;2023-05-01T05:40:19;10.30;99.90
46976;DHT22;32724;51.094;6.996;2023-05-01T05:42:45;10.60;99.90
46976;DHT22;32724;51.094;6.996;2023-05-01T05:45:10;10.90;99.90
46976;DHT22;32724;51.094;6.996;2023-05-01T05:47:36;11.10;99.90
46976;DHT22;32724;51.094;6.996;2023-05-01T05:50:01;11.30;99.90
46976;DHT22;32724;51.094;6.996;2023-05-01T05:52:27;11.60;99.90
46976;DHT22;32724;51.094;6.996;2023-05-01T05:54:52;11.70;99.90
46976;DHT22;32724;51.094;6.996;2023-05-01T05:57:18;11.90;99.90
46976;DHT22;32724;51.094;6.996;2023-05-01T05:59:43;12.10;99.90
46976;DHT22;32724;51.094;6.996;2023-05-01T06:02:09;12.20;99.90
46976;DHT22;32724;51.094;6.996;2023-05-01T06:04:34;12.30;99.90
46976;DHT22;32724;51.094;6.996;2023-05-01T06:07:00;12.40;99.90
46976;DHT22;32724;51.094;6.996;2023-05-01T06:09:25;12.50;99.90
46976;DHT22;32724;51.094;6.996;2023-05-01T06:11:51;12.60;99.90
46976;DHT22;32724;51.094;6.996;2023-05-01T06:14:17;12.70;99.90
46976;DHT22;32724;51.094;6.996;2023-05-01T06:16:42;12.80;99.90
46976;DHT22;32724;51.094;6.996;2023-05-01T06:19:08;12.90;99.90
46976;DHT22;32724;51.094;6.996;2023-05-01T06:21:36;13.10;99.90
46976;DHT22;32724;51.094;6.996;2023-05-01T06:24:01;13.20;99.90
46976;DHT22;32724;51.094;6.996;2023-05-01T06:26:27;13.20;99.90
46976;DHT22;32724;51.094;6.996;2023-05-01T06:28:52;13.30;99.90
46976;DHT22;32724;51.094;6.996;2023-05-01T06:31:19;13.30;99.90
46976;DHT22;32724;51.094;6.996;2023-05-01T06:33:44;13.00;99.90
46976;DHT22;32724;51.094;6.996;2023-05-01T06:36:10;12.70;99.90
46976;DHT22;32724;51.094;6.996;2023-05-01T06:38:35;12.60;99.90
46976;DHT22;32724;51.094;6.996;2023-05-01T06:41:01;12.80;99.90
46976;DHT22;32724;51.094;6.996;2023-05-01T06:43:26;13.00;99.90
46976;DHT22;32724;51.094;6.996;2023-05-01T06:45:55;13.10;99.90
46976;DHT22;32724;51.094;6.996;2023-05-01T06:48:20;13.40;99.90
46976;DHT22;32724;51.094;6.996;2023-05-01T06:50:46;13.70;99.90
46976;DHT22;32724;51.094;6.996;2023-05-01T06:53:11;14.10;99.90
46976;DHT22;32724;51.094;6.996;2023-05-01T06:55:36;14.30;99.90
46976;DHT22;32724;51.094;6.996;2023-05-01T06:58:02;14.60;99.90
46976;DHT22;32724;51.094;6.996;2023-05-01T07:00:29;14.70;99.90
46976;DHT22;32724;51.094;6.996;2023-05-01T07:02:54;14.70;99.90
46976;DHT22;32724;51.094;6.996;2023-05-01T07:05:20;14.70;99.90
46976;DHT22;32724;51.094;6.996;2023-05-01T07:07:46;14.70;99.90
46976;DHT22;32724;51.094;6.996;2023-05-01T07:10:12;14.50;99.90
46976;DHT22;32724;51.094;6.996;2023-05-01T07:12:37;14.50;99.90
46976;DHT22;32724;51.094;6.996;2023-05-01T07:15:03;14.70;99.90
46976;DHT22;32724;51.094;6.996;2023-05-01T07:17:28;14.60;99.90
46976;DHT22;32724;51.094;6.996;2023-05-01T07:19:54;14.80;99.90
46976;DHT22;32724;51.094;6.996;2023-05-01T07:22:19;15.00;99.90
46976;DHT22;32724;51.094;6.996;2023-05-01T07:24:45;14.90;99.90
46976;DHT22;32724;51.094;6.996;2023-05-01T07:27:10;14.80;99.90
46976;DHT22;32724;51.094;6.996;2023-05-01T07:29:39;15.00;99.90
46976;DHT22;32724;51.094;6.996;2023-05-01T07:32:05;15.10;99.90
46976;DHT22;32724;51.094;6.996;2023-05-01T07:34:31;15.20;99.90
46976;DHT22;32724;51.094;6.996;2023-05-01T07:36:56;15.20;99.90
46976;DHT22;32724;51.094;6.996;2023-05-01T07:39:22;15.40;99.90
46976;DHT22;32724;51.094;6.996;2023-05-01T07:41:47;15.50;99.90
46976;DHT22;32724;51.094;6.996;2023-05-01T07:44:12;15.60;99.90
46976;DHT22;32724;51.094;6.996;2023-05-01T07:46:38;15.50;99.90
46976;DHT22;32724;51.094;6.996;2023-05-01T07:49:03;15.60;99.90
46976;DHT22;32724;51.094;6.996;2023-05-01T07:51:29;15.90;99.90
46976;DHT22;32724;51.094;6.996;2023-05-01T07:53:55;15.90;99.90
46976;DHT22;32724;51.094;6.996;2023-05-01T07:56:20;16.10;99.90
46976;DHT22;32724;51.094;6.996;2023-05-01T07:58:46;16.20;99.90
46976;DHT22;32724;51.094;6.996;2023-05-01T08:01:11;16.00;99.90
46976;DHT22;32724;51.094;6.996;2023-05-01T08:03:37;16.10;99.90
46976;DHT22;32724;51.094;6.996;2023-05-01T08:06:03;16.30;99.80
46976;DHT22;32724;51.094;6.996;2023-05-01T08:08:28;16.20;99.50
46976;DHT22;32724;51.094;6.996;2023-05-01T08:10:54;15.90;99.90
46976;DHT22;32724;51.094;6.996;2023-05-01T08:13:20;15.80;99.90
46976;DHT22;32724;51.094;6.996;2023-05-01T08:15:46;16.10;99.90
46976;DHT22;32724;51.094;6.996;2023-05-01T08:18:11;16.40;99.90
46976;DHT22;32724;51.094;6.996;2023-05-01T08:20:43;16.80;99.60
46976;DHT22;32724;51.094;6.996;2023-05-01T08:23:09;17.20;99.00
46976;DHT22;32724;51.094;6.996;2023-05-01T08:25:35;17.40;97.50
46976;DHT22;32724;51.094;6.996;2023-05-01T08:28:00;17.20;97.60
46976;DHT22;32724;51.094;6.996;2023-05-01T08:30:26;17.30;97.70
46976;DHT22;32724;51.094;6.996;2023-05-01T08:32:51;17.20;97.60
46976;DHT22;32724;51.094;6.996;2023-05-01T08:35:17;16.90;97.50
46976;DHT22;32724;51.094;6.996;2023-05-01T08:37:42;17.10;97.80
46976;DHT22;32724;51.094;6.996;2023-05-01T08:40:08;17.20;96.90
46976;DHT22;32724;51.094;6.996;2023-05-01T08:42:34;17.40;97.10
46976;DHT22;32724;51.094;6.996;2023-05-01T08:45:02;17.20;96.60
46976;DHT22;32724;51.094;6.996;2023-05-01T08:47:27;17.30;96.70
46976;DHT22;32724;51.094;6.996;2023-05-01T08:49:54;17.30;96.70
46976;DHT22;32724;51.094;6.996;2023-05-01T08:52:20;17.30;97.30
46976;DHT22;32724;51.094;6.996;2023-05-01T08:54:46;17.50;96.80
46976;DHT22;32724;51.094;6.996;2023-05-01T08:57:12;18.10;95.70
46976;DHT22;32724;51.094;6.996;2023-05-01T08:59:38;18.00;95.50
46976;DHT22;32724;51.094;6.996;2023-05-01T09:02:05;18.00;95.40
46976;DHT22;32724;51.094;6.996;2023-05-01T09:04:32;17.80;95.70
46976;DHT22;32724;51.094;6.996;2023-05-01T09:07:00;17.70;95.90
46976;DHT22;32724;51.094;6.996;2023-05-01T09:09:29;17.60;95.50
46976;DHT22;32724;51.094;6.996;2023-05-01T09:11:57;17.60;95.70
46976;DHT22;32724;51.094;6.996;2023-05-01T09:14:24;17.70;95.70
46976;DHT22;32724;51.094;6.996;2023-05-01T09:16:50;17.90;95.60
46976;DHT22;32724;51.094;6.996;2023-05-01T09:19:15;17.90;94.80
46976;DHT22;32724;51.094;6.996;2023-05-01T09:21:42;17.80;94.50
46976;DHT22;32724;51.094;6.996;2023-05-01T09:24:12;17.90;94.60
46976;DHT22;32724;51.094;6.996;2023-05-01T09:26:40;18.20;95.00
46976;DHT22;32724;51.094;6.996;2023-05-01T09:29:07;18.50;94.40
46976;DHT22;32724;51.094;6.996;2023-05-01T09:31:34;18.70;93.80
46976;DHT22;32724;51.094;6.996;2023-05-01T09:34:03;18.80;93.90
46976;DHT22;32724;51.094;6.996;2023-05-01T09:36:30;19.30;94.40
46976;DHT22;32724;51.094;6.996;2023-05-01T09:38:57;19.60;93.00
46976;DHT22;32724;51.094;6.996;2023-05-01T09:41:22;19.80;93.40
46976;DHT22;32724;51.094;6.996;2023-05-01T09:43:55;20.00;93.40
46976;DHT22;32724;51.094;6.996;2023-05-01T09:46:23;20.10;93.10
46976;DHT22;32724;51.094;6.996;2023-05-01T09:48:56;20.30;92.90
46976;DHT22;32724;51.094;6.996;2023-05-01T09:51:28;20.40;91.60
46976;DHT22;32724;51.094;6.996;2023-05-01T09:53:57;20.00;92.60
46976;DHT22;32724;51.094;6.996;2023-05-01T09:56:27;20.10;92.00
46976;DHT22;32724;51.094;6.996;2023-05-01T09:58:57;20.10;91.60
46976;DHT22;32724;51.094;6.996;2023-05-01T10:01:56;20.20;90.60
46976;DHT22;32724;51.094;6.996;2023-05-01T10:04:15;20.40;92.50
46976;DHT22;32724;51.094;6.996;2023-05-01T10:06:41;20.40;90.90
46976;DHT22;32724;51.094;6.996;2023-05-01T10:09:07;20.70;91.00
46976;DHT22;32724;51.094;6.996;2023-05-01T10:11:48;20.90;90.30
46976;DHT22;32724;51.094;6.996;2023-05-01T10:14:16;20.80;87.00
46976;DHT22;32724;51.094;6.996;2023-05-01T10:16:45;20.60;87.00
46976;DHT22;32724;51.094;6.996;2023-05-01T10:19:11;20.50;90.80
46976;DHT22;32724;51.094;6.996;2023-05-01T10:21:37;20.60;91.30
46976;DHT22;32724;51.094;6.996;2023-05-01T10:24:03;20.70;90.50
46976;DHT22;32724;51.094;6.996;2023-05-01T10:26:32;20.80;91.00
46976;DHT22;32724;51.094;6.996;2023-05-01T10:28:57;21.00;91.10
46976;DHT22;32724;51.094;6.996;2023-05-01T10:31:26;20.90;88.60
46976;DHT22;32724;51.094;6.996;2023-05-01T10:33:59;20.80;88.00
46976;DHT22;32724;51.094;6.996;2023-05-01T10:36:30;21.10;90.50
46976;DHT22;32724;51.094;6.996;2023-05-01T10:39:00;21.40;89.80
46976;DHT22;32724;51.094;6.996;2023-05-01T10:44:23;21.90;88.20
46976;DHT22;32724;51.094;6.996;2023-05-01T10:46:49;22.00;85.80
46976;DHT22;32724;51.094;6.996;2023-05-01T10:49:14;22.20;86.10
46976;DHT22;32724;51.094;6.996;2023-05-01T10:54:27;22.60;85.10
46976;DHT22;32724;51.094;6.996;2023-05-01T10:56:54;22.60;81.00
46976;DHT22;32724;51.094;6.996;2023-05-01T10:59:19;22.40;81.10
46976;DHT22;32724;51.094;6.996;2023-05-01T11:01:48;22.40;80.80
46976;DHT22;32724;51.094;6.996;2023-05-01T11:12:01;22.20;77.00
46976;DHT22;32724;51.094;6.996;2023-05-01T11:14:27;21.90;75.40
46976;DHT22;32724;51.094;6.996;2023-05-01T11:16:53;21.90;75.70
46976;DHT22;32724;51.094;6.996;2023-05-01T11:21:45;21.80;77.70
46976;DHT22;32724;51.094;6.996;2023-05-01T11:24:13;21.60;77.30
46976;DHT22;32724;51.094;6.996;2023-05-01T11:26:43;21.30;78.90
46976;DHT22;32724;51.094;6.996;2023-05-01T11:29:11;21.30;79.50
46976;DHT22;32724;51.094;6.996;2023-05-01T11:31:37;21.30;75.60
46976;DHT22;32724;51.094;6.996;2023-05-01T11:34:03;21.30;76.50
46976;DHT22;32724;51.094;6.996;2023-05-01T11:36:47;21.60;79.70
46976;DHT22;32724;51.094;6.996;2023-05-01T11:39:18;21.70;77.00
46976;DHT22;32724;51.094;6.996;2023-05-01T11:41:44;22.00;78.50
46976;DHT22;32724;51.094;6.996;2023-05-01T11:44:10;22.20;75.90
46976;DHT22;32724;51.094;6.996;2023-05-01T11:46:37;22.20;79.00
46976;DHT22;32724;51.094;6.996;2023-05-01T11:49:05;22.30;76.10
46976;DHT22;32724;51.094;6.996;2023-05-01T11:51:31;22.40;75.80
46976;DHT22;32724;51.094;6.996;2023-05-01T11:54:07;22.40;73.70
46976;DHT22;32724;51.094;6.996;2023-05-01T11:56:34;22.20;73.80
46976;DHT22;32724;51.094;6.996;2023-05-01T11:59:11;22.10;72.20
46976;DHT22;32724;51.094;6.996;2023-05-01T12:01:40;21.80;71.80
46976;DHT22;32724;51.094;6.996;2023-05-01T12:04:06;21.80;75.70
46976;DHT22;32724;51.094;6.996;2023-05-01T12:11:35;22.00;78.60
46976;DHT22;32724;51.094;6.996;2023-05-01T12:14:05;22.30;75.40
46976;DHT22;32724;51.094;6.996;2023-05-01T12:16:31;22.20;75.60
46976;DHT22;32724;51.094;6.996;2023-05-01T12:18:59;21.90;75.20
46976;DHT22;32724;51.094;6.996;2023-05-01T12:21:25;21.90;79.70
46976;DHT22;32724;51.094;6.996;2023-05-01T12:23:52;22.10;77.30
46976;DHT22;32724;51.094;6.996;2023-05-01T12:26:19;22.30;76.60
46976;DHT22;32724;51.094;6.996;2023-05-01T12:28:57;22.40;75.60
46976;DHT22;32724;51.094;6.996;2023-05-01T12:31:24;22.40;75.90
46976;DHT22;32724;51.094;6.996;2023-05-01T12:33:57;22.20;76.00
46976;DHT22;32724;51.094;6.996;2023-05-01T12:36:23;22.00;77.80
46976;DHT22;32724;51.094;6.996;2023-05-01T12:41:33;22.20;77.90
46976;DHT22;32724;51.094;6.996;2023-05-01T12:44:02;22.20;77.40
46976;DHT22;32724;51.094;6.996;2023-05-01T12:46:30;22.00;78.40
46976;DHT22;32724;51.094;6.996;2023-05-01T12:48:56;21.80;78.20
46976;DHT22;32724;51.094;6.996;2023-05-01T12:51:21;21.80;80.80
46976;DHT22;32724;51.094;6.996;2023-05-01T12:53:47;21.70;80.20
46976;DHT22;32724;51.094;6.996;2023-05-01T12:56:23;21.60;79.90
46976;DHT22;32724;51.094;6.996;2023-05-01T12:58:50;21.50;78.90
46976;DHT22;32724;51.094;6.996;2023-05-01T13:01:23;21.40;80.50
46976;DHT22;32724;51.094;6.996;2023-05-01T13:03:50;21.40;81.40
46976;DHT22;32724;51.094;6.996;2023-05-01T13:06:16;21.30;81.20
46976;DHT22;32724;51.094;6.996;2023-05-01T13:08:42;21.20;80.10
46976;DHT22;32724;51.094;6.996;2023-05-01T13:11:11;21.00;78.10
46976;DHT22;32724;51.094;6.996;2023-05-01T13:13:38;20.80;77.20
46976;DHT22;32724;51.094;6.996;2023-05-01T13:16:05;20.80;78.20
46976;DHT22;32724;51.094;6.996;2023-05-01T13:18:31;20.80;78.30
46976;DHT22;32724;51.094;6.996;2023-05-01T13:21:09;20.90;74.70
46976;DHT22;32724;51.094;6.996;2023-05-01T13:23:36;21.10;69.40
46976;DHT22;32724;51.094;6.996;2023-05-01T13:26:04;21.10;68.30
46976;DHT22;32724;51.094;6.996;2023-05-01T13:28:32;21.30;69.70
46976;DHT22;32724;51.094;6.996;2023-05-01T13:30:58;21.30;68.50
46976;DHT22;32724;51.094;6.996;2023-05-01T13:33:24;21.40;71.40
46976;DHT22;32724;51.094;6.996;2023-05-01T13:35:50;21.60;71.70
46976;DHT22;32724;51.094;6.996;2023-05-01T13:38:16;21.60;70.90
46976;DHT22;32724;51.094;6.996;2023-05-01T13:40:47;21.50;71.40
46976;DHT22;32724;51.094;6.996;2023-05-01T13:43:13;21.50;75.40
46976;DHT22;32724;51.094;6.996;2023-05-01T13:45:42;21.60;76.20
46976;DHT22;32724;51.094;6.996;2023-05-01T13:48:08;21.60;76.50
46976;DHT22;32724;51.094;6.996;2023-05-01T13:50:34;21.60;76.50
46976;DHT22;32724;51.094;6.996;2023-05-01T13:53:00;21.70;77.60
46976;DHT22;32724;51.094;6.996;2023-05-01T13:55:25;21.70;76.00
46976;DHT22;32724;51.094;6.996;2023-05-01T13:57:51;21.70;76.30
46976;DHT22;32724;51.094;6.996;2023-05-01T14:00:17;21.60;76.70
46976;DHT22;32724;51.094;6.996;2023-05-01T14:02:44;21.10;76.70
46976;DHT22;32724;51.094;6.996;2023-05-01T14:05:10;20.70;78.20
46976;DHT22;32724;51.094;6.996;2023-05-01T14:07:55;20.50;80.00
46976;DHT22;32724;51.094;6.996;2023-05-01T14:10:22;20.00;80.50
46976;DHT22;32724;51.094;6.996;2023-05-01T14:12:47;19.80;82.40
46976;DHT22;32724;51.094;6.996;2023-05-01T14:15:13;19.50;81.40
46976;DHT22;32724;51.094;6.996;2023-05-01T14:17:39;19.50;84.60
46976;DHT22;32724;51.094;6.996;2023-05-01T14:20:04;19.40;83.70
46976;DHT22;32724;51.094;6.996;2023-05-01T14:22:39;19.30;84.80
46976;DHT22;32724;51.094;6.996;2023-05-01T14:25:07;19.10;85.40
46976;DHT22;32724;51.094;6.996;2023-05-01T14:27:38;19.00;86.40
46976;DHT22;32724;51.094;6.996;2023-05-01T14:30:04;18.90;88.60
46976;DHT22;32724;51.094;6.996;2023-05-01T14:32:32;18.60;90.00
46976;DHT22;32724;51.094;6.996;2023-05-01T14:35:01;18.00;88.70
46976;DHT22;32724;51.094;6.996;2023-05-01T14:37:31;17.60;89.80
46976;DHT22;32724;51.094;6.996;2023-05-01T14:39:56;17.20;91.10
46976;DHT22;32724;51.094;6.996;2023-05-01T14:42:22;16.70;92.70
46976;DHT22;32724;51.094;6.996;2023-05-01T14:44:47;16.40;93.70
46976;DHT22;32724;51.094;6.996;2023-05-01T14:47:13;16.00;94.10
46976;DHT22;32724;51.094;6.996;2023-05-01T14:49:40;15.80;95.80
46976;DHT22;32724;51.094;6.996;2023-05-01T14:52:07;15.60;97.40
46976;DHT22;32724;51.094;6.996;2023-05-01T14:54:34;15.40;99.00
46976;DHT22;32724;51.094;6.996;2023-05-01T14:57:07;15.30;99.70
46976;DHT22;32724;51.094;6.996;2023-05-01T14:59:33;15.10;99.90
46976;DHT22;32724;51.094;6.996;2023-05-01T15:01:58;15.00;99.90
46976;DHT22;32724;51.094;6.996;2023-05-01T15:04:24;14.90;99.90
46976;DHT22;32724;51.094;6.996;2023-05-01T15:06:49;14.90;99.90
46976;DHT22;32724;51.094;6.996;2023-05-01T15:09:16;14.60;99.90
46976;DHT22;32724;51.094;6.996;2023-05-01T15:11:41;14.10;99.90
46976;DHT22;32724;51.094;6.996;2023-05-01T15:14:06;13.70;99.90
46976;DHT22;32724;51.094;6.996;2023-05-01T15:16:32;13.50;99.90
46976;DHT22;32724;51.094;6.996;2023-05-01T15:18:58;13.20;99.90
46976;DHT22;32724;51.094;6.996;2023-05-01T15:21:23;13.00;99.90
46976;DHT22;32724;51.094;6.996;2023-05-01T15:23:49;13.00;99.90
46976;DHT22;32724;51.094;6.996;2023-05-01T15:26:14;13.00;99.90
46976;DHT22;32724;51.094;6.996;2023-05-01T15:28:40;12.90;99.90
46976;DHT22;32724;51.094;6.996;2023-05-01T15:31:06;12.90;99.90
46976;DHT22;32724;51.094;6.996;2023-05-01T15:33:31;13.00;99.90
46976;DHT22;32724;51.094;6.996;2023-05-01T15:35:57;13.00;99.90
46976;DHT22;32724;51.094;6.996;2023-05-01T15:38:22;13.00;99.90
46976;DHT22;32724;51.094;6.996;2023-05-01T15:40:49;13.10;99.90
46976;DHT22;32724;51.094;6.996;2023-05-01T15:43:15;13.10;99.90
46976;DHT22;32724;51.094;6.996;2023-05-01T15:45:41;13.10;99.90
46976;DHT22;32724;51.094;6.996;2023-05-01T15:48:08;13.20;99.90
46976;DHT22;32724;51.094;6.996;2023-05-01T15:50:34;13.30;99.90
46976;DHT22;32724;51.094;6.996;2023-05-01T15:52:59;13.30;99.90
46976;DHT22;32724;51.094;6.996;2023-05-01T15:55:25;13.50;99.90
46976;DHT22;32724;51.094;6.996;2023-05-01T15:57:50;13.50;99.90
46976;DHT22;32724;51.094;6.996;2023-05-01T16:00:16;13.60;99.90
46976;DHT22;32724;51.094;6.996;2023-05-01T16:02:42;13.70;99.90